createdAt,value
2023-04-16T00:01:21.615Z,9.68
2023-04-16T00:03:48.307Z,9.48
2023-04-16T00:06:14.919Z,9.36
2023-04-16T00:08:41.433Z,9.33
2023-04-16T00:11:07.759Z,9.50
2023-04-16T00:13:34.031Z,9.62
2023-04-16T00:16:00.305Z,9.74
2023-04-16T00:18:27.534Z,9.83
2023-04-16T00:20:54.605Z,9.89
2023-04-16T00:23:21.401Z,9.94
2023-04-16T00:25:47.689Z,9.93
2023-04-16T00:28:13.990Z,9.75
2023-04-16T00:30:40.490Z,9.64
2023-04-16T00:33:06.953Z,9.71
2023-04-16T00:35:33.250Z,9.80
2023-04-16T00:37:59.531Z,9.82
2023-04-16T00:40:29.156Z,9.81
2023-04-16T00:42:55.474Z,9.91
2023-04-16T00:45:21.826Z,9.88
2023-04-16T00:47:48.170Z,9.91
2023-04-16T00:50:14.552Z,9.97
2023-04-16T00:52:40.888Z,10.00
2023-04-16T00:55:07.438Z,9.97
2023-04-16T00:57:33.752Z,9.93
2023-04-16T01:00:00.287Z,9.93
2023-04-16T01:02:26.694Z,9.97
2023-04-16T01:04:53.071Z,9.95
2023-04-16T01:07:19.397Z,9.97
2023-04-16T01:09:45.793Z,9.84
2023-04-16T01:12:12.097Z,9.90
2023-04-16T01:14:38.470Z,9.75
2023-04-16T01:17:04.809Z,9.64
2023-04-16T01:19:31.224Z,9.35
2023-04-16T01:21:58.305Z,9.46
2023-04-16T01:24:24.571Z,9.62
2023-04-16T01:26:50.859Z,9.72
2023-04-16T01:29:17.179Z,9.78
2023-04-16T01:31:43.544Z,9.78
2023-04-16T01:34:09.841Z,9.84
2023-04-16T01:36:36.163Z,9.95
2023-04-16T01:39:02.759Z,9.77
2023-04-16T01:41:29.072Z,9.80
2023-04-16T01:43:55.373Z,9.68
2023-04-16T01:46:23.676Z,9.63
2023-04-16T01:48:50.032Z,9.62
2023-04-16T01:51:16.417Z,9.63
2023-04-16T01:53:42.708Z,9.75
2023-04-16T01:56:09.006Z,9.73
2023-04-16T01:58:35.344Z,9.80
2023-04-16T02:01:01.721Z,9.74
2023-04-16T02:03:28.106Z,9.71
2023-04-16T02:05:54.713Z,9.70
2023-04-16T02:08:21.136Z,9.83
2023-04-16T02:10:47.657Z,9.78
2023-04-16T02:13:14.582Z,9.83
2023-04-16T02:15:44.354Z,9.81
2023-04-16T02:18:10.617Z,9.84
2023-04-16T02:20:40.073Z,9.72
2023-04-16T02:23:06.367Z,9.84
2023-04-16T02:25:32.953Z,9.86
2023-04-16T02:27:59.253Z,9.93
2023-04-16T02:30:25.564Z,9.98
2023-04-16T02:32:51.871Z,9.95
2023-04-16T02:35:18.187Z,9.96
2023-04-16T02:37:44.488Z,9.90
2023-04-16T02:40:11.165Z,9.79
2023-04-16T02:42:37.432Z,9.91
2023-04-16T02:45:03.737Z,9.99
2023-04-16T02:47:30.112Z,9.97
2023-04-16T02:49:56.457Z,10.00
2023-04-16T02:52:22.740Z,10.03
2023-04-16T02:54:49.030Z,10.01
2023-04-16T02:57:15.473Z,10.05
2023-04-16T02:59:41.762Z,10.12
2023-04-16T03:02:08.037Z,10.11
2023-04-16T03:04:34.432Z,10.06
2023-04-16T03:07:00.903Z,10.08
2023-04-16T03:09:27.332Z,10.03
2023-04-16T03:11:53.619Z,9.90
2023-04-16T03:14:19.910Z,9.76
2023-04-16T03:16:46.501Z,9.82
2023-04-16T03:19:12.793Z,9.86
2023-04-16T03:21:39.077Z,9.67
2023-04-16T03:24:05.591Z,9.70
2023-04-16T03:26:31.883Z,9.74
2023-04-16T03:28:58.171Z,9.79
2023-04-16T03:31:24.683Z,9.75
2023-04-16T03:33:51.710Z,9.78
2023-04-16T03:36:17.996Z,9.86
2023-04-16T03:38:44.285Z,9.79
2023-04-16T03:41:10.818Z,9.74
2023-04-16T03:43:37.134Z,9.83
2023-04-16T03:46:03.460Z,9.79
2023-04-16T03:48:29.755Z,9.84
2023-04-16T03:50:56.067Z,9.81
2023-04-16T03:53:22.399Z,9.67
2023-04-16T03:55:51.656Z,9.56
2023-04-16T03:58:18.131Z,9.63
2023-04-16T04:00:44.417Z,9.56
2023-04-16T04:03:11.369Z,9.63
2023-04-16T04:05:38.756Z,9.78
2023-04-16T04:08:05.383Z,9.89
2023-04-16T04:10:32.119Z,9.85
2023-04-16T04:12:58.399Z,9.89
2023-04-16T04:15:24.728Z,9.80
2023-04-16T04:17:51.136Z,9.73
2023-04-16T04:20:17.463Z,9.77
2023-04-16T04:22:43.746Z,9.74
2023-04-16T04:25:10.479Z,9.68
2023-04-16T04:27:36.762Z,9.66
2023-04-16T04:30:04.346Z,9.63
2023-04-16T04:32:31.175Z,9.57
2023-04-16T04:34:57.654Z,9.68
2023-04-16T04:37:23.961Z,9.69
2023-04-16T04:39:50.229Z,9.32
2023-04-16T04:42:19.963Z,9.29
2023-04-16T04:44:46.565Z,9.29
2023-04-16T04:47:13.005Z,9.45
2023-04-16T04:49:39.464Z,9.35
2023-04-16T04:52:06.073Z,9.45
2023-04-16T04:54:32.471Z,9.66
2023-04-16T04:56:58.906Z,9.73
2023-04-16T04:59:25.191Z,9.71
2023-04-16T05:01:51.537Z,9.76
2023-04-16T05:04:18.011Z,9.83
2023-04-16T05:06:44.337Z,9.89
2023-04-16T05:09:11.700Z,9.91
2023-04-16T05:11:38.672Z,9.87
2023-04-16T05:14:04.979Z,9.69
2023-04-16T05:16:31.316Z,9.61
2023-04-16T05:18:58.098Z,9.71
2023-04-16T05:21:24.872Z,9.84
2023-04-16T05:23:51.157Z,9.86
2023-04-16T05:26:17.434Z,9.89
2023-04-16T05:28:43.734Z,9.86
2023-04-16T05:31:10.133Z,9.97
2023-04-16T05:33:36.491Z,10.00
2023-04-16T05:36:02.777Z,10.00
2023-04-16T05:38:29.048Z,9.96
2023-04-16T05:40:55.571Z,9.92
2023-04-16T05:43:21.824Z,9.82
2023-04-16T05:45:48.129Z,9.88
2023-04-16T05:48:14.561Z,9.91
2023-04-16T05:50:40.849Z,9.84
2023-04-16T05:53:07.532Z,9.91
2023-04-16T05:55:33.928Z,9.87
2023-04-16T05:58:00.300Z,9.81
2023-04-16T06:00:27.111Z,9.89
2023-04-16T06:02:53.643Z,9.88
2023-04-16T06:05:20.107Z,9.92
2023-04-16T06:07:46.439Z,10.00
2023-04-16T06:10:12.744Z,9.98
2023-04-16T06:12:39.015Z,10.03
2023-04-16T06:15:05.779Z,10.07
2023-04-16T06:17:32.199Z,10.08
2023-04-16T06:19:58.526Z,10.10
2023-04-16T06:22:24.986Z,10.17
2023-04-16T06:24:51.321Z,10.25
2023-04-16T06:27:17.631Z,10.04
2023-04-16T06:29:44.381Z,10.09
2023-04-16T06:32:10.958Z,10.10
2023-04-16T06:34:37.729Z,10.15
2023-04-16T06:37:04.043Z,10.15
2023-04-16T06:39:30.377Z,10.07
2023-04-16T06:41:57.065Z,10.08
2023-04-16T06:44:23.363Z,10.11
2023-04-16T06:46:50.470Z,10.21
2023-04-16T06:49:16.804Z,10.30
2023-04-16T06:51:43.076Z,10.44
2023-04-16T06:54:09.432Z,10.58
2023-04-16T06:56:37.291Z,10.35
2023-04-16T06:59:03.917Z,10.14
2023-04-16T07:01:31.262Z,10.11
2023-04-16T07:03:58.036Z,10.32
2023-04-16T07:06:24.462Z,10.47
2023-04-16T07:08:50.733Z,10.61
2023-04-16T07:11:17.109Z,10.64
2023-04-16T07:13:43.390Z,10.67
2023-04-16T07:16:09.735Z,10.84
2023-04-16T07:18:36.083Z,10.85
2023-04-16T07:21:02.386Z,10.87
2023-04-16T07:23:28.719Z,10.93
2023-04-16T07:25:55.251Z,10.80
2023-04-16T07:28:21.678Z,10.70
2023-04-16T07:30:47.948Z,10.43
2023-04-16T07:33:14.287Z,10.17
2023-04-16T07:35:40.590Z,9.92
2023-04-16T07:38:06.884Z,9.59
2023-04-16T07:40:33.205Z,9.74
2023-04-16T07:42:59.513Z,9.66
2023-04-16T07:45:25.803Z,9.81
2023-04-16T07:47:52.138Z,9.76
2023-04-16T07:50:19.424Z,9.75
2023-04-16T07:52:46.613Z,9.98
2023-04-16T07:55:12.960Z,10.22
2023-04-16T07:57:39.880Z,10.45
2023-04-16T08:00:06.896Z,10.43
2023-04-16T08:02:33.286Z,10.38
2023-04-16T08:04:59.741Z,10.27
2023-04-16T08:07:26.042Z,10.34
2023-04-16T08:09:52.370Z,10.48
2023-04-16T08:12:18.700Z,10.52
2023-04-16T08:14:45.346Z,10.38
2023-04-16T08:17:11.977Z,10.38
2023-04-16T08:19:38.265Z,10.45
2023-04-16T08:22:04.601Z,10.46
2023-04-16T08:24:31.047Z,10.47
2023-04-16T08:27:11.268Z,10.59
2023-04-16T08:29:43.923Z,10.52
2023-04-16T08:32:10.328Z,10.63
2023-04-16T08:34:37.016Z,10.68
2023-04-16T08:37:03.384Z,10.64
2023-04-16T08:39:29.695Z,10.55
2023-04-16T08:41:56.020Z,10.61
2023-04-16T08:44:30.027Z,10.81
2023-04-16T08:46:58.272Z,11.02
2023-04-16T08:49:25.318Z,11.20
2023-04-16T08:51:54.493Z,11.36
2023-04-16T08:54:41.917Z,11.39
2023-04-16T08:57:08.438Z,11.36
2023-04-16T08:59:34.706Z,11.27
2023-04-16T09:02:01.082Z,11.25
2023-04-16T09:04:30.620Z,11.03
2023-04-16T09:06:57.375Z,10.81
2023-04-16T09:09:23.705Z,10.84
2023-04-16T09:11:50.809Z,11.02
2023-04-16T09:14:17.084Z,11.25
2023-04-16T09:16:43.510Z,11.32
2023-04-16T09:19:10.037Z,11.14
2023-04-16T09:21:36.570Z,10.96
2023-04-16T09:24:02.909Z,10.46
2023-04-16T09:26:29.197Z,10.16
2023-04-16T09:28:55.493Z,10.36
2023-04-16T09:31:21.826Z,10.29
2023-04-16T09:34:01.436Z,10.50
2023-04-16T09:36:28.054Z,10.58
2023-04-16T09:38:56.935Z,10.90
2023-04-16T09:41:28.222Z,10.80
2023-04-16T09:43:55.817Z,10.87
2023-04-16T09:46:22.254Z,10.56
2023-04-16T09:48:48.694Z,10.41
2023-04-16T09:51:14.987Z,10.57
2023-04-16T09:53:41.281Z,10.84
2023-04-16T09:56:08.430Z,11.19
2023-04-16T09:58:38.228Z,11.28
2023-04-16T10:01:08.392Z,11.12
2023-04-16T10:03:35.290Z,11.02
2023-04-16T10:06:06.916Z,11.00
2023-04-16T10:08:33.198Z,11.22
2023-04-16T10:10:59.568Z,11.41
2023-04-16T10:13:30.892Z,11.70
2023-04-16T10:15:57.376Z,11.69
2023-04-16T10:18:23.695Z,11.85
2023-04-16T10:20:50.296Z,11.88
2023-04-16T10:23:16.575Z,11.91
2023-04-16T10:25:42.901Z,12.11
2023-04-16T10:28:09.451Z,12.18
2023-04-16T10:30:36.363Z,11.44
2023-04-16T10:33:03.569Z,11.64
2023-04-16T10:35:29.967Z,11.63
2023-04-16T10:37:56.740Z,11.80
2023-04-16T10:40:23.749Z,11.91
2023-04-16T10:42:56.823Z,12.03
2023-04-16T10:45:26.763Z,12.21
2023-04-16T10:47:55.628Z,12.32
2023-04-16T10:50:22.102Z,12.55
2023-04-16T10:52:48.371Z,12.28
2023-04-16T10:55:16.677Z,12.15
2023-04-16T10:57:42.973Z,11.80
2023-04-16T11:00:22.195Z,11.67
2023-04-16T11:02:52.508Z,11.46
2023-04-16T11:05:21.653Z,10.99
2023-04-16T11:07:49.416Z,10.88
2023-04-16T11:10:16.435Z,10.95
2023-04-16T11:12:44.676Z,11.21
2023-04-16T11:15:11.970Z,11.50
2023-04-16T11:17:42.590Z,11.57
2023-04-16T11:20:18.879Z,11.38
2023-04-16T11:22:47.170Z,11.21
2023-04-16T11:25:13.459Z,11.31
2023-04-16T11:27:39.742Z,11.31
2023-04-16T11:30:09.711Z,11.29
2023-04-16T11:32:36.598Z,11.49
2023-04-16T11:35:04.638Z,11.48
2023-04-16T11:37:37.400Z,11.53
2023-04-16T11:40:07.034Z,11.68
2023-04-16T11:42:33.829Z,11.75
2023-04-16T11:45:03.017Z,11.39
2023-04-16T11:47:29.808Z,11.31
2023-04-16T11:49:56.234Z,11.19
2023-04-16T11:52:32.147Z,11.25
2023-04-16T11:54:58.706Z,11.27
2023-04-16T11:57:25.686Z,11.56
2023-04-16T12:00:01.337Z,11.24
2023-04-16T12:02:39.740Z,11.55
2023-04-16T12:05:07.491Z,11.59
2023-04-16T12:07:46.116Z,11.56
2023-04-16T12:10:12.459Z,11.53
2023-04-16T12:12:38.749Z,11.88
2023-04-16T12:15:05.217Z,12.17
2023-04-16T12:17:32.175Z,11.80
2023-04-16T12:19:59.787Z,12.01
2023-04-16T12:22:27.170Z,11.83
2023-04-16T12:24:59.689Z,11.68
2023-04-16T12:27:28.856Z,11.75
2023-04-16T12:30:04.996Z,11.65
2023-04-16T12:32:31.340Z,11.48
2023-04-16T12:34:57.693Z,11.55
2023-04-16T12:37:23.983Z,11.69
2023-04-16T12:39:50.489Z,11.79
2023-04-16T12:42:16.793Z,11.91
2023-04-16T12:44:43.131Z,12.43
2023-04-16T12:47:09.444Z,12.50
2023-04-16T12:49:35.874Z,12.76
2023-04-16T12:52:02.396Z,12.83
2023-04-16T12:54:30.971Z,12.38
2023-04-16T12:56:57.307Z,12.12
2023-04-16T12:59:23.755Z,11.88
2023-04-16T13:01:50.274Z,11.92
2023-04-16T13:04:17.828Z,11.60
2023-04-16T13:06:44.543Z,11.81
2023-04-16T13:09:11.816Z,11.77
2023-04-16T13:11:38.369Z,11.76
2023-04-16T13:14:04.645Z,11.87
2023-04-16T13:16:31.161Z,12.04
2023-04-16T13:18:57.439Z,12.13
2023-04-16T13:21:23.807Z,12.23
2023-04-16T13:23:50.195Z,12.01
2023-04-16T13:26:17.417Z,12.60
2023-04-16T13:28:43.808Z,12.68
2023-04-16T13:31:10.227Z,12.73
2023-04-16T13:33:36.516Z,12.50
2023-04-16T13:36:02.795Z,12.18
2023-04-16T13:38:29.077Z,12.07
2023-04-16T13:40:55.525Z,12.36
2023-04-16T13:43:22.284Z,12.59
2023-04-16T13:45:48.564Z,12.46
2023-04-16T13:48:14.850Z,12.78
2023-04-16T13:50:41.164Z,12.27
2023-04-16T13:53:07.478Z,12.10
2023-04-16T13:55:33.775Z,12.20
2023-04-16T13:58:00.261Z,11.99
2023-04-16T14:00:27.202Z,12.17
2023-04-16T14:02:53.607Z,12.04
2023-04-16T14:05:20.088Z,12.27
2023-04-16T14:07:46.394Z,12.08
2023-04-16T14:10:12.706Z,12.67
2023-04-16T14:12:39.036Z,12.55
2023-04-16T14:15:06.441Z,12.24
2023-04-16T14:17:32.780Z,12.38
2023-04-16T14:19:59.100Z,12.83
2023-04-16T14:22:25.389Z,12.51
2023-04-16T14:24:51.694Z,12.50
2023-04-16T14:27:18.019Z,12.49
2023-04-16T14:29:46.288Z,12.49
2023-04-16T14:32:12.659Z,12.77
2023-04-16T14:34:39.027Z,12.90
2023-04-16T14:37:05.582Z,13.25
2023-04-16T14:39:31.850Z,13.49
2023-04-16T14:41:58.116Z,13.25
2023-04-16T14:44:24.462Z,13.35
2023-04-16T14:46:50.870Z,13.20
2023-04-16T14:49:17.380Z,13.04
2023-04-16T14:51:44.839Z,13.29
2023-04-16T14:54:11.359Z,13.55
2023-04-16T14:56:37.729Z,13.73
2023-04-16T14:59:04.068Z,13.70
2023-04-16T15:01:30.490Z,13.49
2023-04-16T15:03:57.460Z,13.28
2023-04-16T15:06:24.233Z,13.26
2023-04-16T15:08:50.598Z,13.46
2023-04-16T15:11:16.999Z,13.35
2023-04-16T15:13:43.329Z,13.07
2023-04-16T15:16:09.663Z,12.88
2023-04-16T15:18:35.961Z,12.98
2023-04-16T15:21:02.233Z,13.13
2023-04-16T15:23:28.530Z,13.53
2023-04-16T15:25:54.814Z,13.46
2023-04-16T15:28:23.262Z,13.15
2023-04-16T15:30:49.798Z,13.17
2023-04-16T15:33:16.179Z,13.51
2023-04-16T15:35:42.481Z,13.59
2023-04-16T15:38:08.877Z,13.34
2023-04-16T15:40:35.392Z,13.52
2023-04-16T15:43:01.681Z,13.84
2023-04-16T15:45:27.975Z,13.57
2023-04-16T15:47:54.942Z,13.19
2023-04-16T15:50:21.729Z,13.31
2023-04-16T15:52:48.011Z,13.32
2023-04-16T15:55:14.506Z,13.60
2023-04-16T15:57:41.028Z,13.28
2023-04-16T16:00:13.766Z,13.30
2023-04-16T16:02:40.752Z,13.06
2023-04-16T16:05:09.247Z,12.99
2023-04-16T16:07:35.601Z,12.79
2023-04-16T16:10:01.994Z,12.88
2023-04-16T16:12:28.359Z,13.03
2023-04-16T16:14:54.695Z,13.21
2023-04-16T16:17:21.668Z,13.02
2023-04-16T16:19:48.017Z,13.32
2023-04-16T16:22:15.822Z,13.25
2023-04-16T16:24:42.159Z,13.57
2023-04-16T16:27:08.426Z,12.98
2023-04-16T16:29:34.699Z,12.69
2023-04-16T16:32:01.065Z,12.43
2023-04-16T16:34:28.128Z,12.23
2023-04-16T16:36:54.396Z,12.70
2023-04-16T16:39:24.263Z,13.17
2023-04-16T16:41:52.304Z,13.33
2023-04-16T16:44:19.187Z,13.50
2023-04-16T16:46:45.556Z,13.68
2023-04-16T16:49:12.047Z,13.86
2023-04-16T16:51:38.564Z,13.73
2023-04-16T16:54:05.497Z,13.46
2023-04-16T16:56:31.806Z,13.21
2023-04-16T16:58:58.243Z,12.65
2023-04-16T17:01:25.145Z,12.23
2023-04-16T17:03:51.749Z,11.93
2023-04-16T17:06:18.257Z,12.02
2023-04-16T17:08:44.592Z,12.05
2023-04-16T17:11:10.894Z,12.36
2023-04-16T17:13:37.302Z,12.40
2023-04-16T17:16:03.632Z,12.46
2023-04-16T17:18:29.931Z,12.37
2023-04-16T17:20:56.299Z,12.46
2023-04-16T17:23:22.609Z,12.27
2023-04-16T17:25:48.901Z,12.20
2023-04-16T17:28:15.267Z,11.95
2023-04-16T17:30:42.189Z,11.89
2023-04-16T17:33:08.540Z,11.75
2023-04-16T17:35:35.060Z,11.91
2023-04-16T17:38:01.430Z,12.04
2023-04-16T17:40:27.729Z,12.18
2023-04-16T17:42:54.007Z,12.22
2023-04-16T17:45:20.310Z,12.46
2023-04-16T17:47:46.648Z,12.61
2023-04-16T17:50:13.066Z,12.66
2023-04-16T17:52:39.507Z,12.72
2023-04-16T17:55:06.153Z,12.79
2023-04-16T17:57:32.527Z,12.92
2023-04-16T17:59:58.846Z,12.54
2023-04-16T18:02:25.485Z,12.45
2023-04-16T18:04:52.041Z,12.46
2023-04-16T18:07:18.357Z,12.41
2023-04-16T18:09:44.664Z,12.47
2023-04-16T18:12:11.006Z,12.33
2023-04-16T18:14:38.563Z,12.10
2023-04-16T18:17:06.360Z,12.09
2023-04-16T18:19:33.041Z,11.96
2023-04-16T18:21:59.385Z,12.05
2023-04-16T18:24:25.706Z,12.17
2023-04-16T18:29:19.073Z,12.35
2023-04-16T18:31:45.710Z,12.32
2023-04-16T18:34:12.554Z,12.32
2023-04-16T18:36:39.026Z,12.36
2023-04-16T18:39:07.316Z,12.44
2023-04-16T18:41:33.616Z,12.44
2023-04-16T18:43:59.927Z,12.36
2023-04-16T18:46:27.396Z,12.23
2023-04-16T18:48:54.110Z,12.21
2023-04-16T18:51:21.151Z,12.10
2023-04-16T18:53:47.469Z,12.03
2023-04-16T18:56:13.782Z,12.08
2023-04-16T18:58:40.147Z,12.09
2023-04-16T19:01:11.002Z,12.18
2023-04-16T19:03:37.773Z,12.19
2023-04-16T19:06:04.307Z,12.20
2023-04-16T19:08:30.618Z,12.16
2023-04-16T19:10:56.915Z,12.17
2023-04-16T19:13:23.184Z,11.85
2023-04-16T19:15:49.533Z,11.73
2023-04-16T19:18:16.034Z,11.84
2023-04-16T19:20:42.332Z,11.92
2023-04-16T19:23:09.189Z,12.00
2023-04-16T19:25:36.384Z,11.90
2023-04-16T19:28:03.611Z,11.88
2023-04-16T19:30:30.480Z,11.86
2023-04-16T19:32:56.882Z,11.77
2023-04-16T19:35:23.255Z,11.62
2023-04-16T19:37:50.380Z,11.49
2023-04-16T19:40:16.651Z,11.53
2023-04-16T19:42:45.132Z,11.49
2023-04-16T19:45:11.468Z,11.46
2023-04-16T19:47:37.801Z,11.35
2023-04-16T19:50:04.225Z,11.25
2023-04-16T19:52:30.527Z,11.30
2023-04-16T19:54:56.877Z,11.25
2023-04-16T19:57:23.173Z,11.21
2023-04-16T19:59:49.464Z,11.22
2023-04-16T20:02:15.807Z,11.11
2023-04-16T20:04:42.155Z,11.08
2023-04-16T20:07:08.411Z,11.00
2023-04-16T20:09:34.765Z,11.00
2023-04-16T20:12:01.921Z,11.02
2023-04-16T20:14:28.239Z,10.97
2023-04-16T20:16:54.576Z,10.78
2023-04-16T20:19:21.992Z,10.78
2023-04-16T20:21:48.303Z,10.91
2023-04-16T20:24:15.355Z,11.11
2023-04-16T20:26:41.858Z,11.26
2023-04-16T20:29:09.925Z,11.23
2023-04-16T20:31:36.550Z,11.33
2023-04-16T20:34:03.736Z,11.28
2023-04-16T20:36:30.345Z,11.29
2023-04-16T20:38:56.672Z,11.28
2023-04-16T20:41:25.054Z,11.20
2023-04-16T20:43:52.733Z,11.17
2023-04-16T20:46:23.899Z,11.12
2023-04-16T20:48:51.132Z,11.05
2023-04-16T20:51:17.430Z,11.07
2023-04-16T20:53:43.710Z,11.01
2023-04-16T20:56:12.026Z,10.97
2023-04-16T20:58:38.310Z,11.02
2023-04-16T21:01:05.853Z,10.90
2023-04-16T21:03:32.311Z,10.84
2023-04-16T21:05:58.690Z,10.74
2023-04-16T21:08:25.072Z,10.64
2023-04-16T21:10:51.356Z,10.59
2023-04-16T21:13:18.517Z,10.53
2023-04-16T21:15:45.093Z,10.25
2023-04-16T21:18:11.503Z,10.22
2023-04-16T21:20:37.786Z,10.11
2023-04-16T21:23:04.380Z,10.07
2023-04-16T21:25:31.035Z,10.05
2023-04-16T21:27:57.325Z,10.07
2023-04-16T21:30:23.625Z,10.02
2023-04-16T21:32:49.992Z,10.02
2023-04-16T21:35:16.347Z,10.02
2023-04-16T21:37:42.656Z,9.95
2023-04-16T21:40:09.251Z,9.86
2023-04-16T21:42:39.799Z,9.82
2023-04-16T21:45:07.415Z,9.80
2023-04-16T21:47:33.741Z,9.73
2023-04-16T21:50:00.157Z,9.68
2023-04-16T21:52:26.422Z,9.76
2023-04-16T21:54:52.758Z,9.88
2023-04-16T21:57:19.088Z,9.87
2023-04-16T21:59:45.502Z,9.93
2023-04-16T22:02:11.952Z,9.84
2023-04-16T22:04:38.907Z,9.83
2023-04-16T22:07:05.876Z,9.79
2023-04-16T22:09:32.479Z,9.76
2023-04-16T22:11:58.861Z,9.76
2023-04-16T22:14:25.726Z,9.55
2023-04-16T22:16:53.479Z,9.42
2023-04-16T22:19:21.473Z,9.35
2023-04-16T22:21:47.990Z,9.28
2023-04-16T22:24:14.351Z,9.28
2023-04-16T22:26:40.628Z,9.21
2023-04-16T22:29:06.924Z,9.11
2023-04-16T22:31:33.361Z,9.09
2023-04-16T22:34:00.984Z,9.06
2023-04-16T22:36:29.093Z,8.91
2023-04-16T22:38:55.607Z,8.89
2023-04-16T22:41:23.199Z,8.88
2023-04-16T22:43:51.214Z,8.86
2023-04-16T22:46:19.819Z,8.79
2023-04-16T22:48:46.204Z,8.81
2023-04-16T22:51:12.510Z,8.82
2023-04-16T22:53:38.864Z,8.89
2023-04-16T22:56:05.334Z,8.99
2023-04-16T22:58:31.675Z,9.05
2023-04-16T23:00:59.363Z,8.80
2023-04-16T23:03:26.029Z,8.77
2023-04-16T23:05:52.376Z,8.65
2023-04-16T23:08:18.670Z,8.59
2023-04-16T23:10:44.968Z,8.62
2023-04-16T23:13:11.327Z,8.73
2023-04-16T23:15:37.720Z,8.84
2023-04-16T23:18:04.054Z,9.01
2023-04-16T23:20:30.402Z,8.91
2023-04-16T23:22:56.702Z,8.82
2023-04-16T23:25:23.526Z,8.89
2023-04-16T23:27:49.813Z,8.97
2023-04-16T23:30:16.460Z,9.01
2023-04-16T23:32:42.848Z,8.95
2023-04-16T23:35:09.374Z,8.87
2023-04-16T23:37:35.663Z,8.92
2023-04-16T23:40:02.166Z,8.80
2023-04-16T23:42:28.492Z,8.66
2023-04-16T23:44:54.765Z,8.57
2023-04-16T23:47:21.139Z,8.57
2023-04-16T23:49:47.544Z,8.69
2023-04-16T23:52:13.836Z,8.71
2023-04-16T23:54:40.135Z,8.77
2023-04-16T23:57:06.471Z,8.76
2023-04-16T23:59:32.773Z,8.69
